Royal Clipper — 9HA2796 — position and weather

sailwx.info

Track history (hours):
 
Tides and Currents Weather Stations Pressure Air Temp Water Temp Dewpoint Dewpoint Depression Visibility Wind Speed Wind Dir Waves Ship Positions

Royal Clipper

Last reported at 2017-Mar-02 05:33 UTC. Time now 2017-Mar-28 08:16 UTC.
Position N 16°28' W 062°22'.
Warning: this ship's position is 26 days out of date.

Length 137 m; draft 6.2 m.

Type: Ship. MMSI: 215813000.

Date/timePositionNaut miles runAvg speedWind from/ knotsBaromVisibWave heightAir tempDewpointWater temp
2017-Mar-02 05:33N 16°28' W 062°22'34 1.6
2017-Mar-01 07:33N 17°02' W 062°14'7 6.8
2017-Mar-01 06:33N 17°01' W 062°07'7 6.8
2017-Mar-01 05:34N 16°60' W 061°60'8 7.9
2017-Mar-01 04:33N 16°60' W 061°51'4 4.3
2017-Mar-01 03:32N 17°01' W 061°47'0 0.0
2017-Mar-01 02:32N 17°01' W 061°47'0 0.0
2017-Mar-01 01:32N 17°01' W 061°47'0 0.0
2017-Mar-01 00:32N 17°01' W 061°47'0 0.0
2017-Feb-28 23:32N 17°01' W 061°47'0 0.0
2017-Feb-28 22:32N 17°01' W 061°47'0 0.0
2017-Feb-28 21:32N 17°01' W 061°47'0 0.0
2017-Feb-28 20:32N 17°01' W 061°47'0 0.0
2017-Feb-28 19:32N 17°01' W 061°47'0 0.0
2017-Feb-28 18:32N 17°01' W 061°47'0 0.0
2017-Feb-28 17:32N 17°01' W 061°47'0 0.0
2017-Feb-28 16:32N 17°01' W 061°47'0 0.0
2017-Feb-28 15:32N 17°01' W 061°47'0 0.0
2017-Feb-28 14:32N 17°01' W 061°47'0 0.0
2017-Feb-28 13:32N 17°01' W 061°47'0 0.0
2017-Feb-28 12:32N 17°01' W 061°47'1 0.6
2017-Feb-28 11:33N 16°60' W 061°47'7 6.7
2017-Feb-28 10:33N 16°53' W 061°46'7 7.0
2017-Feb-28 09:33N 16°46' W 061°47'7 6.7
2017-Feb-28 08:33N 16°40' W 061°48'7 7.0
2017-Feb-28 07:33N 16°33' W 061°49'6 6.2
2017-Feb-28 06:33N 16°27' W 061°50'7 6.7
2017-Feb-28 05:33N 16°20' W 061°51'37 7.0
2017-Feb-28 00:19N 15°44' W 061°43'  
Track history (hours):
 
Tides and Currents Weather Stations Pressure Air Temp Water Temp Dewpoint Dewpoint Depression Visibility Wind Speed Wind Dir Waves Ship Positions

Royal Clipper

Last reported at 2017-Mar-02 05:33 UTC. Time now 2017-Mar-28 08:16 UTC.
Position N 16°28' W 062°22'.
Warning: this ship's position is 26 days out of date.

Length 137 m; draft 6.2 m.

Type: Ship. MMSI: 215813000.

Date/timePositionNaut miles runAvg speedWind from/ knotsBaromVisibWave heightAir tempDewpointWater temp
2017-Mar-02 05:33N 16°28' W 062°22'34 1.6
2017-Mar-01 07:33N 17°02' W 062°14'7 6.8
2017-Mar-01 06:33N 17°01' W 062°07'7 6.8
2017-Mar-01 05:34N 16°60' W 061°60'8 7.9
2017-Mar-01 04:33N 16°60' W 061°51'4 4.3
2017-Mar-01 03:32N 17°01' W 061°47'0 0.0
2017-Mar-01 02:32N 17°01' W 061°47'0 0.0
2017-Mar-01 01:32N 17°01' W 061°47'0 0.0
2017-Mar-01 00:32N 17°01' W 061°47'0 0.0
2017-Feb-28 23:32N 17°01' W 061°47'0 0.0
2017-Feb-28 22:32N 17°01' W 061°47'0 0.0
2017-Feb-28 21:32N 17°01' W 061°47'0 0.0
2017-Feb-28 20:32N 17°01' W 061°47'0 0.0
2017-Feb-28 19:32N 17°01' W 061°47'0 0.0
2017-Feb-28 18:32N 17°01' W 061°47'0 0.0
2017-Feb-28 17:32N 17°01' W 061°47'0 0.0
2017-Feb-28 16:32N 17°01' W 061°47'0 0.0
2017-Feb-28 15:32N 17°01' W 061°47'0 0.0
2017-Feb-28 14:32N 17°01' W 061°47'0 0.0
2017-Feb-28 13:32N 17°01' W 061°47'0 0.0
2017-Feb-28 12:32N 17°01' W 061°47'1 0.6
2017-Feb-28 11:33N 16°60' W 061°47'7 6.7
2017-Feb-28 10:33N 16°53' W 061°46'7 7.0
2017-Feb-28 09:33N 16°46' W 061°47'7 6.7
2017-Feb-28 08:33N 16°40' W 061°48'7 7.0
2017-Feb-28 07:33N 16°33' W 061°49'6 6.2
2017-Feb-28 06:33N 16°27' W 061°50'7 6.7
2017-Feb-28 05:33N 16°20' W 061°51'37 7.0
2017-Feb-28 00:19N 15°44' W 061°43'  

Dump ship's entire track history